Time;durP1;ratioP1;P1;durP2;ratioP2;P2;SDS_P1;SDS_P2;PMS_P1;PMS_P2;Temp;Humidity;BMP_temperature;BMP_pressure;BME280_temperature;BME280_humidity;BME280_pressure;Samples;Min_cycle;Max_cycle;Signal;HPM_P1;HPM_P2
2023/10/04 00:00:30;;;;;;;62.53;30.45;;;17.30;99.90;;;;;;5052484;28;20111;-84
2023/10/04 00:02:58;;;;;;;67.40;30.85;;;17.20;99.90;;;;;;5051328;28;20453;-84
2023/10/04 00:05:24;;;;;;;70.07;32.25;;;17.20;99.90;;;;;;5052526;28;20103;-84
2023/10/04 00:07:55;;;;;;;61.60;29.70;;;17.10;99.90;;;;;;5051313;28;20087;-85
2023/10/04 00:10:23;;;;;;;61.40;28.88;;;17.20;99.90;;;;;;5051065;28;20045;-84
2023/10/04 00:12:51;;;;;;;53.78;28.92;;;17.20;99.90;;;;;;5051286;28;20033;-85
2023/10/04 00:15:20;;;;;;;55.42;27.58;;;17.10;99.90;;;;;;5050972;28;20111;-85
2023/10/04 00:17:47;;;;;;;49.95;27.27;;;17.10;99.90;;;;;;5034506;28;20501;-84
2023/10/04 00:20:17;;;;;;;49.53;27.50;;;17.20;99.90;;;;;;5052290;28;20037;-84
2023/10/04 00:22:46;;;;;;;60.45;28.63;;;17.10;99.90;;;;;;5051010;28;20120;-84
2023/10/04 00:25:20;;;;;;;53.70;28.10;;;17.10;99.90;;;;;;5031295;28;20128;-84
2023/10/04 00:27:48;;;;;;;55.97;28.60;;;17.10;99.90;;;;;;5051685;28;20026;-84
2023/10/04 00:30:15;;;;;;;54.28;29.63;;;17.10;99.90;;;;;;5051143;28;20029;-84
2023/10/04 00:32:42;;;;;;;57.58;29.30;;;17.00;99.90;;;;;;5051277;28;20025;-84
2023/10/04 00:35:12;;;;;;;60.75;29.10;;;16.90;99.90;;;;;;5019508;28;20028;-84
2023/10/04 00:37:42;;;;;;;66.55;29.17;;;16.90;99.90;;;;;;5034523;28;20114;-84
2023/10/04 00:40:15;;;;;;;58.75;29.80;;;16.90;99.90;;;;;;5051025;28;20116;-84
2023/10/04 00:42:42;;;;;;;59.03;29.27;;;16.90;99.90;;;;;;5034563;28;20036;-84
2023/10/04 00:45:13;;;;;;;60.00;28.38;;;16.80;99.90;;;;;;5051091;28;20021;-84
2023/10/04 00:47:56;;;;;;;52.47;29.30;;;16.80;99.90;;;;;;5034328;28;20052;-84
2023/10/04 00:50:33;;;;;;;51.92;27.70;;;16.70;99.90;;;;;;5034237;28;20025;-84
2023/10/04 00:53:03;;;;;;;55.65;29.08;;;16.70;99.90;;;;;;5034450;28;20120;-84
2023/10/04 00:55:32;;;;;;;56.85;28.33;;;16.70;99.90;;;;;;5050188;28;20116;-84
2023/10/04 00:58:02;;;;;;;61.15;28.33;;;16.70;99.90;;;;;;5054121;28;20025;-84
2023/10/04 01:00:29;;;;;;;56.03;28.02;;;16.70;99.90;;;;;;5037646;28;20029;-85
2023/10/04 01:02:56;;;;;;;55.42;28.13;;;16.60;99.90;;;;;;5054037;28;20021;-84
2023/10/04 01:05:25;;;;;;;55.55;27.60;;;16.60;99.90;;;;;;5034000;28;20475;-84
2023/10/04 01:08:13;;;;;;;52.17;28.08;;;16.60;99.90;;;;;;5050716;28;20036;-84
2023/10/04 01:10:40;;;;;;;51.13;28.02;;;16.60;99.90;;;;;;5033895;28;20049;-85
2023/10/04 01:13:09;;;;;;;50.65;27.75;;;16.60;99.90;;;;;;5050399;28;20087;-84
2023/10/04 01:15:39;;;;;;;50.72;27.70;;;16.60;99.90;;;;;;5033952;28;20044;-84
2023/10/04 01:18:10;;;;;;;56.60;28.35;;;16.50;99.90;;;;;;5050407;28;20040;-84
2023/10/04 01:20:38;;;;;;;64.57;29.30;;;16.50;99.90;;;;;;5050347;28;20030;-84
2023/10/04 01:23:10;;;;;;;59.53;28.98;;;16.40;99.90;;;;;;5034995;28;20025;-84
2023/10/04 01:25:46;;;;;;;62.88;29.35;;;16.40;99.90;;;;;;5053620;28;20386;-84
2023/10/04 01:28:30;;;;;;;54.03;28.67;;;16.40;99.90;;;;;;5053664;28;20035;-84
2023/10/04 01:31:00;;;;;;;56.35;27.90;;;16.40;99.90;;;;;;5035761;28;20025;-84
2023/10/04 01:33:28;;;;;;;54.55;28.13;;;16.40;99.90;;;;;;5035527;28;20028;-83
2023/10/04 01:35:55;;;;;;;55.38;26.23;;;16.40;99.90;;;;;;5036767;28;20028;-84
2023/10/04 01:38:27;;;;;;;61.15;27.27;;;16.40;99.90;;;;;;5053325;28;20033;-84
2023/10/04 01:40:55;;;;;;;55.47;28.63;;;16.40;99.90;;;;;;5023578;28;20029;-84
2023/10/04 01:43:24;;;;;;;54.38;27.60;;;16.40;99.90;;;;;;5016798;28;20037;-83
2023/10/04 01:45:59;;;;;;;51.45;27.17;;;16.40;99.90;;;;;;5039371;28;20037;-84
2023/10/04 01:48:28;;;;;;;46.20;25.40;;;16.30;99.90;;;;;;5033249;28;20037;-84
2023/10/04 01:50:55;;;;;;;50.58;26.80;;;16.20;99.90;;;;;;5034365;28;20536;-84
2023/10/04 01:53:27;;;;;;;48.03;24.60;;;16.20;99.90;;;;;;5049749;28;20068;-85
2023/10/04 01:55:56;;;;;;;48.10;25.52;;;16.20;99.90;;;;;;5047030;28;20454;-84
2023/10/04 01:58:25;;;;;;;44.33;25.77;;;16.20;99.90;;;;;;5053002;28;20083;-84
2023/10/04 02:01:00;;;;;;;47.88;27.08;;;16.20;99.90;;;;;;5054198;28;20729;-83
2023/10/04 02:03:27;;;;;;;51.05;26.25;;;16.20;99.90;;;;;;5052852;28;20033;-84
2023/10/04 02:05:56;;;;;;;49.10;25.92;;;16.20;99.90;;;;;;5052799;28;20402;-84
2023/10/04 02:08:23;;;;;;;38.65;24.48;;;16.30;99.90;;;;;;5036143;28;20025;-83
2023/10/04 02:10:52;;;;;;;45.30;25.33;;;16.30;99.90;;;;;;5036021;28;20041;-85
2023/10/04 02:13:21;;;;;;;46.00;25.83;;;16.30;99.90;;;;;;5036158;28;20077;-84
2023/10/04 02:15:52;;;;;;;39.30;24.05;;;16.30;99.90;;;;;;5036083;28;20060;-84
2023/10/04 02:18:21;;;;;;;43.55;24.58;;;16.30;99.90;;;;;;5035878;28;20037;-84
2023/10/04 02:20:49;;;;;;;36.58;23.40;;;16.20;99.90;;;;;;5052511;28;20029;-85
2023/10/04 02:23:16;;;;;;;43.15;24.95;;;16.20;99.90;;;;;;5035797;28;20021;-84
2023/10/04 02:25:43;;;;;;;37.03;23.02;;;16.20;99.90;;;;;;5052417;28;20125;-83
2023/10/04 02:28:18;;;;;;;34.95;21.63;;;16.20;99.90;;;;;;5035972;28;20505;-84
2023/10/04 02:30:48;;;;;;;37.00;22.05;;;16.20;99.90;;;;;;5052402;28;20029;-84
2023/10/04 02:33:16;;;;;;;36.38;22.58;;;16.20;99.90;;;;;;5035693;28;20032;-85
2023/10/04 02:35:48;;;;;;;37.03;21.75;;;16.10;99.90;;;;;;5052122;28;20025;-84
2023/10/04 02:38:32;;;;;;;32.33;21.95;;;16.10;99.90;;;;;;5035627;28;20048;-84
2023/10/04 02:41:00;;;;;;;31.05;21.73;;;16.20;99.90;;;;;;5036093;28;20099;-84
2023/10/04 02:43:26;;;;;;;32.05;20.35;;;16.20;99.90;;;;;;5052123;28;20028;-84
2023/10/04 02:45:55;;;;;;;31.63;20.23;;;16.20;99.90;;;;;;5051986;28;20033;-84
2023/10/04 02:48:23;;;;;;;34.80;20.50;;;16.20;99.90;;;;;;5035152;28;20050;-83
2023/10/04 02:50:51;;;;;;;37.22;20.52;;;16.20;99.90;;;;;;5035596;28;20180;-84
2023/10/04 02:53:25;;;;;;;29.38;19.48;;;16.20;99.90;;;;;;5051865;28;20044;-83
2023/10/04 02:55:54;;;;;;;31.42;20.13;;;16.30;99.90;;;;;;5032058;28;20022;-84
2023/10/04 02:58:26;;;;;;;31.27;20.20;;;16.30;99.90;;;;;;5031945;28;20144;-84
2023/10/04 03:00:54;;;;;;;33.95;19.55;;;16.30;99.90;;;;;;5048588;28;20502;-84
2023/10/04 03:03:30;;;;;;;32.92;20.02;;;16.30;99.90;;;;;;5047776;28;20025;-81
2023/10/04 03:06:01;;;;;;;30.75;20.77;;;16.40;99.90;;;;;;5042545;28;20417;-81
2023/10/04 03:08:32;;;;;;;36.70;21.35;;;16.50;99.90;;;;;;5051435;28;20477;-81
2023/10/04 03:11:03;;;;;;;31.15;19.85;;;16.60;99.90;;;;;;5051230;28;20460;-80
2023/10/04 03:13:32;;;;;;;35.00;19.27;;;16.70;99.90;;;;;;5051320;28;20033;-80
2023/10/04 03:16:03;;;;;;;32.92;18.30;;;16.80;99.90;;;;;;5052655;28;20025;-82
2023/10/04 03:18:33;;;;;;;40.50;18.50;;;16.80;99.90;;;;;;5034982;28;20534;-81
2023/10/04 03:23:34;;;;;;;28.40;18.08;;;16.90;99.90;;;;;;5052033;28;20071;-80
2023/10/04 03:26:06;;;;;;;30.33;18.08;;;16.70;99.90;;;;;;5052655;28;20079;-81
2023/10/04 03:28:37;;;;;;;27.38;18.40;;;16.60;99.90;;;;;;5052643;28;20036;-81
2023/10/04 03:31:14;;;;;;;31.48;17.90;;;16.40;99.90;;;;;;5052085;28;20120;-80
2023/10/04 03:33:46;;;;;;;25.40;17.35;;;16.30;99.90;;;;;;5052745;28;20047;-81
2023/10/04 03:36:21;;;;;;;28.15;17.70;;;16.20;99.90;;;;;;5051161;28;20029;-80
2023/10/04 03:38:58;;;;;;;28.13;16.85;;;16.20;99.90;;;;;;5052325;28;20051;-83
2023/10/04 03:41:25;;;;;;;24.40;16.92;;;16.20;99.90;;;;;;5051413;28;20029;-83
2023/10/04 03:43:57;;;;;;;30.20;17.77;;;16.20;99.90;;;;;;5035705;28;20044;-83
2023/10/04 03:46:26;;;;;;;29.77;18.65;;;16.20;99.90;;;;;;5051167;28;20057;-83
2023/10/04 03:48:58;;;;;;;35.65;20.17;;;16.10;99.90;;;;;;5051472;28;20063;-83
2023/10/04 03:51:26;;;;;;;33.88;19.80;;;16.10;99.90;;;;;;5052138;28;20116;-85
2023/10/04 03:53:57;;;;;;;31.40;19.20;;;16.10;99.90;;;;;;5051601;28;20104;-82
2023/10/04 03:56:26;;;;;;;35.70;20.65;;;16.00;99.90;;;;;;5051264;28;20033;-82
2023/10/04 03:58:53;;;;;;;34.85;20.65;;;15.90;99.90;;;;;;5052324;28;20037;-82
2023/10/04 04:01:20;;;;;;;38.00;20.83;;;15.90;99.90;;;;;;5054512;28;20025;-82
2023/10/04 04:03:49;;;;;;;36.47;21.40;;;15.80;99.90;;;;;;5055036;28;20482;-82
2023/10/04 04:06:17;;;;;;;42.78;22.33;;;15.80;99.90;;;;;;5056245;28;20040;-81
2023/10/04 04:08:46;;;;;;;39.35;22.60;;;15.70;99.90;;;;;;5038452;28;20017;-82
2023/10/04 04:11:13;;;;;;;37.58;21.42;;;15.80;99.90;;;;;;5054671;28;20748;-82
2023/10/04 04:13:40;;;;;;;41.10;22.45;;;15.70;99.90;;;;;;5038227;28;20036;-82
2023/10/04 04:16:11;;;;;;;35.28;21.65;;;15.80;99.90;;;;;;5054886;28;20490;-82
2023/10/04 04:18:39;;;;;;;34.50;21.85;;;15.80;99.90;;;;;;5056084;28;20041;-82
2023/10/04 04:21:05;;;;;;;38.20;21.17;;;15.80;99.90;;;;;;5038141;28;20017;-81
2023/10/04 04:23:33;;;;;;;30.98;20.30;;;15.80;99.90;;;;;;5054762;28;20040;-82
2023/10/04 04:26:00;;;;;;;28.20;19.55;;;15.70;99.90;;;;;;5054355;28;20033;-82
2023/10/04 04:28:27;;;;;;;31.92;19.55;;;15.70;99.90;;;;;;5038056;28;20033;-83
2023/10/04 04:30:53;;;;;;;33.10;20.00;;;15.60;99.90;;;;;;5037924;28;20021;-83
2023/10/04 04:33:26;;;;;;;29.88;18.85;;;15.60;99.90;;;;;;5054453;28;20410;-83
2023/10/04 04:36:00;;;;;;;31.30;21.23;;;15.50;99.90;;;;;;5054750;28;20466;-81
2023/10/04 04:38:28;;;;;;;32.33;19.63;;;15.60;99.90;;;;;;5055672;28;20032;-82
2023/10/04 04:40:56;;;;;;;33.40;20.75;;;15.60;99.90;;;;;;5055693;28;20104;-81
2023/10/04 04:43:36;;;;;;;31.77;21.15;;;15.70;99.90;;;;;;5038029;28;20052;-81
2023/10/04 04:46:13;;;;;;;28.15;18.63;;;15.70;99.90;;;;;;5055614;28;20108;-81
2023/10/04 04:48:41;;;;;;;31.48;19.98;;;15.70;99.90;;;;;;5054373;28;20029;-81
2023/10/04 04:51:12;;;;;;;29.77;19.45;;;15.70;99.90;;;;;;5037890;28;20029;-81
2023/10/04 04:53:43;;;;;;;24.60;17.88;;;15.80;99.90;;;;;;5055348;28;20028;-81
2023/10/04 04:56:14;;;;;;;25.08;16.67;;;15.80;99.90;;;;;;5054599;28;20032;-81
2023/10/04 04:58:56;;;;;;;24.02;17.30;;;15.80;99.90;;;;;;5055335;28;20096;-83
2023/10/04 05:01:34;;;;;;;21.40;16.08;;;15.80;99.90;;;;;;5037868;28;20029;-82
2023/10/04 05:04:05;;;;;;;21.15;16.17;;;15.90;99.90;;;;;;5054015;28;20033;-81
2023/10/04 05:06:32;;;;;;;21.20;16.33;;;15.90;99.90;;;;;;5054171;28;20033;-81
2023/10/04 05:08:59;;;;;;;23.58;17.17;;;16.00;99.90;;;;;;5053912;28;20021;-82
2023/10/04 05:11:26;;;;;;;27.17;18.15;;;16.00;99.90;;;;;;5053389;28;20091;-81
2023/10/04 05:13:56;;;;;;;29.67;18.10;;;16.00;99.90;;;;;;5054237;28;20028;-81
2023/10/04 05:16:25;;;;;;;27.67;17.83;;;16.00;99.90;;;;;;5033657;28;20120;-81
2023/10/04 05:18:53;;;;;;;35.00;20.02;;;16.10;99.90;;;;;;5044709;28;20079;-82
2023/10/04 05:21:20;;;;;;;35.85;19.80;;;16.10;99.90;;;;;;5053798;28;20488;-81
2023/10/04 05:23:46;;;;;;;32.90;20.02;;;16.20;99.90;;;;;;5037037;28;20057;-82
2023/10/04 05:26:13;;;;;;;34.33;19.95;;;16.30;99.90;;;;;;5054818;28;20370;-82
2023/10/04 05:28:40;;;;;;;40.55;21.83;;;16.30;99.90;;;;;;5035099;28;20566;-81
2023/10/04 05:31:08;;;;;;;39.58;21.27;;;16.30;99.90;;;;;;5039564;28;20030;-81
2023/10/04 05:33:35;;;;;;;39.35;21.77;;;16.30;99.90;;;;;;5049910;28;20017;-82
2023/10/04 05:36:03;;;;;;;35.75;20.73;;;16.40;99.90;;;;;;5053169;28;20025;-81
2023/10/04 05:38:35;;;;;;;32.38;20.48;;;16.50;99.90;;;;;;5032400;28;20057;-81
2023/10/04 05:41:03;;;;;;;40.60;21.92;;;16.60;99.90;;;;;;5035011;28;20029;-82
2023/10/04 05:43:37;;;;;;;40.33;22.60;;;16.70;99.90;;;;;;5036668;28;20386;-81
2023/10/04 05:46:09;;;;;;;42.63;22.88;;;16.90;99.90;;;;;;5053059;28;20028;-82
2023/10/04 05:48:41;;;;;;;36.75;20.58;;;17.20;99.90;;;;;;5053384;28;20390;-81
2023/10/04 05:51:08;;;;;;;34.88;20.13;;;17.40;99.90;;;;;;5036391;28;20486;-82
2023/10/04 05:53:34;;;;;;;30.35;19.90;;;17.60;99.90;;;;;;5052844;28;20083;-82
2023/10/04 05:56:03;;;;;;;25.77;18.50;;;18.00;99.90;;;;;;5036148;28;20549;-82
2023/10/04 05:58:31;;;;;;;29.80;20.25;;;18.20;99.90;;;;;;5053064;28;20123;-81
2023/10/04 06:00:59;;;;;;;25.10;19.58;;;18.60;99.90;;;;;;5054332;28;20025;-81
2023/10/04 06:03:26;;;;;;;23.48;21.00;;;18.90;99.90;;;;;;5053983;28;20113;-81
2023/10/04 06:05:52;;;;;;;24.23;21.73;;;19.20;99.90;;;;;;5035785;28;20043;-82
2023/10/04 06:08:19;;;;;;;25.42;22.70;;;19.60;99.90;;;;;;5052634;28;20025;-81
2023/10/04 06:10:53;;;;;;;27.67;23.55;;;19.70;99.90;;;;;;5053672;28;20041;-81
2023/10/04 06:13:22;;;;;;;27.80;24.88;;;19.90;99.90;;;;;;5052809;28;20036;-81
2023/10/04 06:15:53;;;;;;;28.23;25.35;;;19.90;99.90;;;;;;5052066;28;20021;-81
2023/10/04 06:18:28;;;;;;;29.50;25.60;;;20.00;99.90;;;;;;5053882;28;20033;-81
2023/10/04 06:20:56;;;;;;;27.63;24.80;;;20.20;99.90;;;;;;5053780;28;20068;-81
2023/10/04 06:23:22;;;;;;;31.33;25.95;;;20.30;99.90;;;;;;5035141;28;20032;-81
2023/10/04 06:25:50;;;;;;;30.77;27.45;;;20.60;99.90;;;;;;5052133;28;20031;-81
2023/10/04 06:28:17;;;;;;;31.25;28.02;;;20.90;99.90;;;;;;5053799;28;20021;-82
2023/10/04 06:30:48;;;;;;;31.17;27.95;;;21.30;99.90;;;;;;5035872;28;20482;-81
2023/10/04 06:33:15;;;;;;;30.67;27.85;;;21.60;99.90;;;;;;5052131;28;20158;-82
2023/10/04 06:35:44;;;;;;;30.75;27.42;;;22.00;99.90;;;;;;5037865;28;20029;-87
2023/10/04 06:38:13;;;;;;;31.45;28.25;;;22.00;99.90;;;;;;5036397;28;20029;-88
2023/10/04 06:40:40;;;;;;;32.17;29.17;;;22.40;99.90;;;;;;5036424;28;20025;-88
2023/10/04 06:43:08;;;;;;;32.42;29.52;;;22.70;99.90;;;;;;5032497;28;20048;-85
2023/10/04 06:45:36;;;;;;;34.95;31.60;;;23.00;99.90;;;;;;5051423;28;20374;-86
2023/10/04 06:48:04;;;;;;;34.92;31.38;;;23.40;99.90;;;;;;5035932;28;20106;-85
2023/10/04 06:50:35;;;;;;;33.72;30.67;;;23.60;99.90;;;;;;5052690;28;20028;-86
2023/10/04 06:53:05;;;;;;;35.10;31.77;;;23.80;99.90;;;;;;5053855;28;20053;-89
2023/10/04 06:55:37;;;;;;;36.33;31.60;;;24.10;99.90;;;;;;5052901;28;20035;-88
2023/10/04 06:58:04;;;;;;;36.15;32.50;;;24.30;99.90;;;;;;5052738;28;20394;-89
2023/10/04 07:00:36;;;;;;;36.88;33.10;;;24.70;99.90;;;;;;5035943;28;20033;-87
2023/10/04 07:03:06;;;;;;;37.80;33.78;;;24.90;99.90;;;;;;5052680;28;20395;-88
2023/10/04 07:05:36;;;;;;;37.05;33.03;;;25.00;99.90;;;;;;5036078;28;20029;-88
2023/10/04 07:08:05;;;;;;;38.60;34.45;;;25.20;99.90;;;;;;5053274;28;20025;-88
2023/10/04 07:10:31;;;;;;;45.35;34.33;;;25.30;99.90;;;;;;5035636;28;20137;-88
2023/10/04 07:13:00;;;;;;;36.63;31.98;;;25.40;99.90;;;;;;5052861;28;20496;-87
2023/10/04 07:15:39;;;;;;;37.53;32.15;;;25.30;99.90;;;;;;5035957;28;20120;-87
2023/10/04 07:18:12;;;;;;;32.45;29.33;;;25.50;99.90;;;;;;5036068;28;20033;-87
2023/10/04 07:20:40;;;;;;;34.88;30.90;;;25.70;99.90;;;;;;5035873;28;20063;-87
2023/10/04 07:23:09;;;;;;;32.75;29.75;;;25.70;99.90;;;;;;5035911;28;20031;-87
2023/10/04 07:25:39;;;;;;;32.88;29.55;;;26.00;99.90;;;;;;5052467;28;20036;-88
2023/10/04 07:28:09;;;;;;;32.72;29.70;;;26.10;99.90;;;;;;5052442;28;20393;-87
2023/10/04 07:30:38;;;;;;;32.63;29.20;;;26.20;99.90;;;;;;5052384;28;20490;-86
2023/10/04 07:33:08;;;;;;;32.85;29.77;;;26.10;99.90;;;;;;5035888;28;20029;-87
2023/10/04 07:35:37;;;;;;;32.33;28.90;;;26.30;99.90;;;;;;5038325;28;20063;-87
2023/10/04 07:38:05;;;;;;;31.90;28.75;;;26.10;99.90;;;;;;5039592;28;20067;-85
2023/10/04 07:40:40;;;;;;;31.08;28.15;;;26.20;99.90;;;;;;5038453;28;20025;-81
2023/10/04 07:43:08;;;;;;;32.58;29.63;;;26.30;99.90;;;;;;5056037;28;20021;-84
2023/10/04 07:45:35;;;;;;;32.17;29.02;;;26.50;99.90;;;;;;5029648;28;20052;-84
2023/10/04 07:48:04;;;;;;;32.33;29.42;;;27.00;99.90;;;;;;5037363;28;20549;-86
2023/10/04 07:50:31;;;;;;;33.45;30.30;;;27.00;99.90;;;;;;5054818;28;20013;-85
2023/10/04 07:53:04;;;;;;;32.22;29.40;;;27.00;99.90;;;;;;5055851;28;20525;-82
2023/10/04 07:55:33;;;;;;;33.63;30.13;;;26.80;99.90;;;;;;5055173;28;20029;-82
2023/10/04 07:58:05;;;;;;;33.13;30.23;;;26.90;99.90;;;;;;5055543;28;20025;-81
2023/10/04 08:00:36;;;;;;;33.45;30.08;;;27.40;99.90;;;;;;5054866;28;20558;-81
2023/10/04 08:03:03;;;;;;;32.72;30.02;;;27.40;99.90;;;;;;5054786;28;20394;-81
2023/10/04 08:05:35;;;;;;;33.17;29.85;;;27.60;99.90;;;;;;5054979;28;20120;-84
2023/10/04 08:08:04;;;;;;;32.22;29.33;;;27.40;99.90;;;;;;5055186;28;20113;-82
2023/10/04 08:10:39;;;;;;;33.45;30.55;;;27.10;99.90;;;;;;5038295;28;20159;-82
2023/10/04 08:13:06;;;;;;;34.30;31.10;;;27.00;99.90;;;;;;5034841;28;20112;-82
2023/10/04 08:15:37;;;;;;;33.53;30.63;;;27.70;99.90;;;;;;5036674;28;20029;-81
2023/10/04 08:18:08;;;;;;;33.13;30.08;;;27.50;99.90;;;;;;5054564;28;20021;-81
2023/10/04 08:20:38;;;;;;;33.95;30.92;;;27.10;99.90;;;;;;5056199;28;20082;-81
2023/10/04 08:23:05;;;;;;;34.97;31.58;;;27.10;99.90;;;;;;5054714;28;20079;-82
2023/10/04 08:25:35;;;;;;;34.45;31.25;;;27.10;99.90;;;;;;5056920;28;20104;-81
2023/10/04 08:28:13;;;;;;;34.83;31.65;;;27.20;99.90;;;;;;5054833;28;20028;-85
2023/10/04 08:30:51;;;;;;;36.03;32.35;;;27.30;99.90;;;;;;5054749;28;20036;-83
2023/10/04 08:33:31;;;;;;;36.08;32.55;;;27.30;99.90;;;;;;5054243;28;20076;-80
2023/10/04 08:36:08;;;;;;;35.35;31.83;;;27.80;99.90;;;;;;5037831;28;20085;-81
2023/10/04 08:38:35;;;;;;;34.08;30.85;;;28.00;99.90;;;;;;5054337;28;20041;-81
2023/10/04 08:41:04;;;;;;;33.65;30.80;;;27.90;99.90;;;;;;5037970;28;20082;-85
2023/10/04 08:43:34;;;;;;;35.58;32.13;;;27.70;99.90;;;;;;5034323;28;20025;-81
2023/10/04 08:46:04;;;;;;;33.92;30.88;;;27.80;99.90;;;;;;5053608;28;20051;-81
2023/10/04 08:48:33;;;;;;;34.72;31.10;;;27.50;99.90;;;;;;5038110;28;20028;-81
2023/10/04 08:51:23;;;;;;;34.47;31.38;;;27.60;99.90;;;;;;5037665;28;20033;-80
2023/10/04 08:54:19;;;;;;;34.28;30.98;;;27.60;99.90;;;;;;5053896;28;20035;-81
2023/10/04 08:57:00;;;;;;;34.88;31.38;;;27.70;99.90;;;;;;5054091;28;20025;-80
2023/10/04 08:59:29;;;;;;;35.00;31.58;;;28.10;99.90;;;;;;5054139;28;20091;-81
2023/10/04 09:02:12;;;;;;;34.42;31.35;;;27.90;99.90;;;;;;5055358;28;20066;-80
2023/10/04 09:04:39;;;;;;;35.05;31.52;;;27.50;99.90;;;;;;5034740;28;20029;-80
2023/10/04 09:07:12;;;;;;;34.72;31.60;;;27.30;99.90;;;;;;5053879;28;20021;-80
2023/10/04 09:09:39;;;;;;;35.40;31.98;;;27.20;99.90;;;;;;5037374;28;20051;-80
2023/10/04 09:12:10;;;;;;;34.90;31.77;;;27.50;99.90;;;;;;5037076;28;20500;-80
2023/10/04 09:14:40;;;;;;;35.45;31.67;;;27.40;99.90;;;;;;5037438;28;20039;-81
2023/10/04 09:17:13;;;;;;;34.20;31.38;;;27.30;99.90;;;;;;5053787;28;20079;-79
2023/10/04 09:19:41;;;;;;;34.97;31.98;;;27.20;99.90;;;;;;5055036;28;20036;-79
2023/10/04 09:22:09;;;;;;;35.58;32.38;;;27.20;99.90;;;;;;5054991;28;20076;-79
2023/10/04 09:24:53;;;;;;;35.42;32.15;;;27.40;99.90;;;;;;5054583;28;20033;-79
2023/10/04 09:27:21;;;;;;;36.30;33.10;;;27.80;99.90;;;;;;5054067;28;20029;-79
2023/10/04 09:29:53;;;;;;;34.75;31.83;;;27.70;99.90;;;;;;5053351;28;20029;-79
2023/10/04 09:32:42;;;;;;;36.13;33.05;;;27.60;99.90;;;;;;5053583;28;20159;-80
2023/10/04 09:35:10;;;;;;;35.40;32.20;;;27.70;99.90;;;;;;5053367;28;20029;-79
2023/10/04 09:37:42;;;;;;;35.65;32.33;;;27.80;99.90;;;;;;5036429;28;20025;-80
2023/10/04 09:40:12;;;;;;;35.90;32.60;;;27.80;99.90;;;;;;5053323;28;20036;-79
2023/10/04 09:42:51;;;;;;;35.25;31.77;;;27.80;99.90;;;;;;5053387;28;20518;-80
2023/10/04 09:45:26;;;;;;;35.25;32.13;;;28.00;99.90;;;;;;5052943;28;20071;-79
2023/10/04 09:47:57;;;;;;;36.00;32.58;;;28.20;99.90;;;;;;5053707;28;20025;-79
2023/10/04 09:50:26;;;;;;;36.10;32.72;;;28.20;99.90;;;;;;5036807;28;20032;-79
2023/10/04 09:52:53;;;;;;;35.85;32.75;;;28.20;99.90;;;;;;5054251;28;20132;-79
2023/10/04 09:55:22;;;;;;;34.95;31.83;;;27.90;99.90;;;;;;5054148;28;20032;-79
2023/10/04 09:57:49;;;;;;;36.90;33.60;;;27.70;99.90;;;;;;5033700;28;20033;-79
2023/10/04 10:00:22;;;;;;;34.78;31.77;;;27.60;99.90;;;;;;5053764;28;20080;-79
2023/10/04 10:02:53;;;;;;;35.10;32.20;;;27.90;99.90;;;;;;5054183;28;20021;-79
2023/10/04 10:05:26;;;;;;;35.28;32.38;;;27.80;99.90;;;;;;5054025;28;20029;-80
2023/10/04 10:08:04;;;;;;;37.72;34.00;;;27.80;99.90;;;;;;5052817;28;20047;-79
2023/10/04 10:10:37;;;;;;;39.03;35.42;;;27.90;99.90;;;;;;5053745;28;20091;-80
2023/10/04 10:13:09;;;;;;;37.20;34.10;;;27.90;99.90;;;;;;5054095;28;20540;-80
2023/10/04 10:15:38;;;;;;;38.92;35.22;;;27.90;99.90;;;;;;5052285;28;20031;-81
2023/10/04 10:18:07;;;;;;;38.53;35.05;;;27.80;99.90;;;;;;5053784;28;20032;-81
2023/10/04 10:20:34;;;;;;;36.70;33.70;;;27.80;99.90;;;;;;5054016;28;20025;-80
2023/10/04 10:23:00;;;;;;;36.47;33.28;;;27.80;99.90;;;;;;5053634;28;20017;-81
2023/10/04 10:25:29;;;;;;;37.50;33.67;;;28.00;99.90;;;;;;5052344;28;20060;-80
2023/10/04 10:28:01;;;;;;;36.63;33.38;;;28.30;99.90;;;;;;5052437;28;20021;-80
2023/10/04 10:30:28;;;;;;;36.33;32.72;;;28.20;99.90;;;;;;5053702;28;20151;-80
2023/10/04 10:33:02;;;;;;;36.05;32.88;;;28.40;99.90;;;;;;5053294;28;20524;-81
2023/10/04 10:35:57;;;;;;;36.15;33.10;;;28.20;99.90;;;;;;5052348;28;20500;-80
2023/10/04 10:38:40;;;;;;;36.72;33.67;;;28.20;99.90;;;;;;5033661;28;20052;-80
2023/10/04 10:41:29;;;;;;;36.60;33.58;;;28.20;99.90;;;;;;5033633;28;20382;-81
2023/10/04 10:44:16;;;;;;;36.45;33.10;;;28.50;99.90;;;;;;5045283;28;20024;-81
2023/10/04 10:47:08;;;;;;;36.65;33.10;;;28.40;99.90;;;;;;5052016;28;20609;-80
2023/10/04 10:50:12;;;;;;;35.30;32.20;;;28.30;99.90;;;;;;5052238;28;20048;-80
2023/10/04 10:52:42;;;;;;;35.97;32.80;;;27.90;99.90;;;;;;5047512;28;20091;-80
2023/10/04 13:59:13;;;;;;;33.67;30.58;;;26.50;99.90;;;;;;5586214;23;20059;-88
2023/10/04 14:01:41;;;;;;;34.38;31.15;;;26.70;99.90;;;;;;4936870;29;20111;-89
2023/10/04 14:04:09;;;;;;;34.40;31.40;;;26.70;99.90;;;;;;4920925;29;20476;-88
2023/10/04 14:06:35;;;;;;;33.40;30.45;;;26.70;99.90;;;;;;4936225;29;20043;-86
2023/10/04 14:09:11;;;;;;;33.92;30.50;;;26.60;99.90;;;;;;4917023;29;20397;-85
2023/10/04 14:11:38;;;;;;;34.00;30.70;;;26.40;99.90;;;;;;4932643;29;20124;-84
2023/10/04 14:14:09;;;;;;;33.55;30.70;;;26.40;99.90;;;;;;4932812;29;20032;-85
2023/10/04 14:16:41;;;;;;;34.30;31.02;;;26.40;99.90;;;;;;4932765;29;20063;-85
2023/10/04 14:19:12;;;;;;;32.78;29.98;;;26.40;99.90;;;;;;4917247;29;20044;-85
2023/10/04 14:21:39;;;;;;;33.00;30.00;;;26.30;99.90;;;;;;4917284;29;20367;-85
2023/10/04 14:24:06;;;;;;;33.95;30.58;;;26.10;99.90;;;;;;4932705;29;20031;-87
2023/10/04 14:26:33;;;;;;;34.67;31.52;;;26.00;99.90;;;;;;4916839;29;20394;-84
2023/10/04 14:29:00;;;;;;;33.25;30.42;;;26.00;99.90;;;;;;4918051;29;20032;-85
2023/10/04 14:31:29;;;;;;;33.33;30.25;;;26.00;99.90;;;;;;4932535;29;20405;-85
2023/10/04 14:33:56;;;;;;;33.17;30.20;;;26.00;99.90;;;;;;4932529;29;20025;-84
2023/10/04 14:36:23;;;;;;;33.45;30.35;;;26.00;99.90;;;;;;4917759;29;20031;-85
2023/10/04 14:38:52;;;;;;;33.67;30.52;;;26.10;99.90;;;;;;4918208;29;20032;-85
2023/10/04 14:41:22;;;;;;;33.17;30.38;;;26.10;99.90;;;;;;4935584;29;20031;-84
2023/10/04 14:43:49;;;;;;;33.80;30.55;;;26.10;99.90;;;;;;4936354;29;20031;-83
2023/10/04 14:46:15;;;;;;;33.63;30.50;;;26.10;99.90;;;;;;4936232;29;20079;-84
2023/10/04 14:48:41;;;;;;;32.17;29.63;;;26.00;99.90;;;;;;4919138;29;20034;-83
2023/10/04 14:51:09;;;;;;;32.78;29.92;;;26.00;99.90;;;;;;4919303;29;20493;-83
2023/10/04 14:53:35;;;;;;;33.97;30.50;;;25.80;99.90;;;;;;4935044;29;20042;-84
2023/10/04 14:56:02;;;;;;;35.50;32.25;;;25.70;99.90;;;;;;4934888;29;20034;-83
2023/10/04 14:58:29;;;;;;;34.30;31.33;;;25.60;99.90;;;;;;4934641;29;20133;-83
2023/10/04 15:00:57;;;;;;;33.70;30.65;;;25.60;99.90;;;;;;4915758;29;20134;-82
2023/10/04 15:03:26;;;;;;;34.15;30.77;;;25.50;99.90;;;;;;4916016;29;20382;-83
2023/10/04 15:05:53;;;;;;;34.00;30.63;;;25.50;99.90;;;;;;4917203;29;20032;-83
2023/10/04 15:08:22;;;;;;;34.88;31.65;;;25.40;99.90;;;;;;4915926;29;20444;-83
2023/10/04 15:10:50;;;;;;;33.85;30.48;;;25.50;99.90;;;;;;4931590;29;20107;-83
2023/10/04 15:13:17;;;;;;;34.28;31.08;;;25.50;99.90;;;;;;4915747;29;20036;-83
2023/10/04 15:15:44;;;;;;;33.70;30.23;;;25.40;99.90;;;;;;4931655;29;20035;-83
2023/10/04 15:18:11;;;;;;;34.00;30.80;;;25.40;99.90;;;;;;4915819;29;20047;-84
2023/10/04 15:20:37;;;;;;;32.10;29.15;;;25.40;99.90;;;;;;4934833;29;20036;-83
2023/10/04 15:23:05;;;;;;;33.75;30.50;;;25.40;99.90;;;;;;4934662;29;20038;-83
2023/10/04 15:25:40;;;;;;;33.22;30.42;;;25.30;99.90;;;;;;4919718;29;20449;-85
2023/10/04 15:28:12;;;;;;;33.95;30.85;;;25.30;99.90;;;;;;4918858;29;20563;-83
2023/10/04 15:30:40;;;;;;;34.50;31.40;;;25.20;99.90;;;;;;4916253;29;20039;-84
2023/10/04 15:33:09;;;;;;;33.13;30.25;;;25.10;99.90;;;;;;4900201;29;20466;-85
2023/10/04 15:35:36;;;;;;;33.95;30.77;;;25.10;99.90;;;;;;4915673;29;20482;-84
2023/10/04 15:38:03;;;;;;;34.03;31.08;;;25.10;99.90;;;;;;4899937;29;20024;-85
2023/10/04 15:40:32;;;;;;;33.53;30.33;;;25.00;99.90;;;;;;4929966;29;20036;-84
2023/10/04 15:43:01;;;;;;;33.97;30.70;;;25.00;99.90;;;;;;4919017;29;20075;-84
2023/10/04 15:45:32;;;;;;;34.05;31.05;;;25.00;99.90;;;;;;4918775;29;20063;-84
2023/10/04 15:48:08;;;;;;;33.50;30.45;;;24.90;99.90;;;;;;4918500;29;20119;-84
2023/10/04 15:50:45;;;;;;;34.40;31.00;;;24.80;99.90;;;;;;4934316;29;20114;-84